sensor_id;sensor_type;location;lat;lon;timestamp;P1;durP1;ratioP1;P2;durP2;ratioP2
10162;SDS011;5123;52.556;13.384;2023-12-07T00:00:43;23.97;;;16.10;;
10162;SDS011;5123;52.556;13.384;2023-12-07T00:03:15;25.60;;;17.67;;
10162;SDS011;5123;52.556;13.384;2023-12-07T00:05:48;23.13;;;16.33;;
10162;SDS011;5123;52.556;13.384;2023-12-07T00:08:21;25.07;;;17.00;;
10162;SDS011;5123;52.556;13.384;2023-12-07T00:10:54;25.00;;;16.73;;
10162;SDS011;5123;52.556;13.384;2023-12-07T00:13:27;23.67;;;16.27;;
10162;SDS011;5123;52.556;13.384;2023-12-07T00:16:02;23.30;;;15.57;;
10162;SDS011;5123;52.556;13.384;2023-12-07T00:18:34;24.23;;;15.97;;
10162;SDS011;5123;52.556;13.384;2023-12-07T00:21:08;22.90;;;16.30;;
10162;SDS011;5123;52.556;13.384;2023-12-07T00:23:40;21.07;;;15.23;;
10162;SDS011;5123;52.556;13.384;2023-12-07T00:26:13;23.27;;;15.70;;
10162;SDS011;5123;52.556;13.384;2023-12-07T00:28:47;22.97;;;15.50;;
10162;SDS011;5123;52.556;13.384;2023-12-07T00:31:21;21.70;;;15.93;;
10162;SDS011;5123;52.556;13.384;2023-12-07T00:33:56;24.67;;;16.83;;
10162;SDS011;5123;52.556;13.384;2023-12-07T00:36:29;23.43;;;15.47;;
10162;SDS011;5123;52.556;13.384;2023-12-07T00:39:01;23.30;;;16.50;;
10162;SDS011;5123;52.556;13.384;2023-12-07T00:41:39;22.67;;;15.90;;
10162;SDS011;5123;52.556;13.384;2023-12-07T00:44:12;24.53;;;16.23;;
10162;SDS011;5123;52.556;13.384;2023-12-07T00:46:46;25.60;;;16.40;;
10162;SDS011;5123;52.556;13.384;2023-12-07T00:49:19;24.20;;;16.13;;
10162;SDS011;5123;52.556;13.384;2023-12-07T00:51:52;24.47;;;16.43;;
10162;SDS011;5123;52.556;13.384;2023-12-07T00:54:25;22.53;;;15.93;;
10162;SDS011;5123;52.556;13.384;2023-12-07T00:56:57;26.13;;;17.77;;
10162;SDS011;5123;52.556;13.384;2023-12-07T00:59:33;25.47;;;16.70;;
10162;SDS011;5123;52.556;13.384;2023-12-07T01:02:07;24.33;;;16.60;;
10162;SDS011;5123;52.556;13.384;2023-12-07T01:04:40;22.20;;;16.17;;
10162;SDS011;5123;52.556;13.384;2023-12-07T01:07:13;24.37;;;16.63;;
10162;SDS011;5123;52.556;13.384;2023-12-07T01:09:49;26.83;;;17.60;;
10162;SDS011;5123;52.556;13.384;2023-12-07T01:12:22;23.27;;;16.97;;
10162;SDS011;5123;52.556;13.384;2023-12-07T01:14:55;24.97;;;17.67;;
10162;SDS011;5123;52.556;13.384;2023-12-07T01:17:32;23.53;;;16.73;;
10162;SDS011;5123;52.556;13.384;2023-12-07T01:20:05;24.13;;;16.83;;
10162;SDS011;5123;52.556;13.384;2023-12-07T01:22:43;27.13;;;17.70;;
10162;SDS011;5123;52.556;13.384;2023-12-07T01:25:17;26.90;;;18.23;;
10162;SDS011;5123;52.556;13.384;2023-12-07T01:27:54;25.43;;;17.80;;
10162;SDS011;5123;52.556;13.384;2023-12-07T01:30:27;25.77;;;17.23;;
10162;SDS011;5123;52.556;13.384;2023-12-07T01:33:01;24.93;;;16.13;;
10162;SDS011;5123;52.556;13.384;2023-12-07T01:35:34;23.17;;;17.10;;
10162;SDS011;5123;52.556;13.384;2023-12-07T01:38:07;26.63;;;17.57;;
10162;SDS011;5123;52.556;13.384;2023-12-07T01:40:40;25.83;;;17.47;;
10162;SDS011;5123;52.556;13.384;2023-12-07T01:43:17;23.73;;;16.00;;
10162;SDS011;5123;52.556;13.384;2023-12-07T01:45:50;20.57;;;15.30;;
10162;SDS011;5123;52.556;13.384;2023-12-07T01:48:26;23.47;;;16.10;;
10162;SDS011;5123;52.556;13.384;2023-12-07T01:51:02;22.63;;;15.40;;
10162;SDS011;5123;52.556;13.384;2023-12-07T01:53:38;21.77;;;15.17;;
10162;SDS011;5123;52.556;13.384;2023-12-07T01:56:14;23.00;;;16.17;;
10162;SDS011;5123;52.556;13.384;2023-12-07T01:58:47;24.93;;;17.10;;
10162;SDS011;5123;52.556;13.384;2023-12-07T02:01:20;21.70;;;14.87;;
10162;SDS011;5123;52.556;13.384;2023-12-07T02:03:55;21.67;;;15.50;;
10162;SDS011;5123;52.556;13.384;2023-12-07T02:06:27;25.20;;;17.20;;
10162;SDS011;5123;52.556;13.384;2023-12-07T02:09:03;22.80;;;15.93;;
10162;SDS011;5123;52.556;13.384;2023-12-07T02:11:39;24.23;;;16.83;;
10162;SDS011;5123;52.556;13.384;2023-12-07T02:14:12;27.13;;;18.07;;
10162;SDS011;5123;52.556;13.384;2023-12-07T02:16:45;27.20;;;19.00;;
10162;SDS011;5123;52.556;13.384;2023-12-07T02:19:29;26.83;;;18.13;;
10162;SDS011;5123;52.556;13.384;2023-12-07T02:22:06;26.53;;;16.80;;
10162;SDS011;5123;52.556;13.384;2023-12-07T02:24:42;25.50;;;17.77;;
10162;SDS011;5123;52.556;13.384;2023-12-07T02:27:33;26.10;;;17.10;;
10162;SDS011;5123;52.556;13.384;2023-12-07T02:30:08;26.23;;;17.27;;
10162;SDS011;5123;52.556;13.384;2023-12-07T02:36:16;21.97;;;15.33;;
10162;SDS011;5123;52.556;13.384;2023-12-07T02:38:50;21.93;;;16.27;;
10162;SDS011;5123;52.556;13.384;2023-12-07T02:41:23;21.20;;;15.07;;
10162;SDS011;5123;52.556;13.384;2023-12-07T02:43:59;24.27;;;15.70;;
10162;SDS011;5123;52.556;13.384;2023-12-07T02:46:32;21.63;;;14.57;;
10162;SDS011;5123;52.556;13.384;2023-12-07T02:49:07;19.33;;;14.07;;
10162;SDS011;5123;52.556;13.384;2023-12-07T02:51:40;22.23;;;15.87;;
10162;SDS011;5123;52.556;13.384;2023-12-07T02:54:13;22.13;;;15.53;;
10162;SDS011;5123;52.556;13.384;2023-12-07T02:56:47;23.30;;;16.43;;
10162;SDS011;5123;52.556;13.384;2023-12-07T02:59:22;22.73;;;14.17;;
10162;SDS011;5123;52.556;13.384;2023-12-07T03:01:54;22.53;;;15.83;;
10162;SDS011;5123;52.556;13.384;2023-12-07T03:04:27;25.47;;;16.57;;
10162;SDS011;5123;52.556;13.384;2023-12-07T03:07:00;24.47;;;14.57;;
10162;SDS011;5123;52.556;13.384;2023-12-07T03:09:33;20.60;;;15.60;;
10162;SDS011;5123;52.556;13.384;2023-12-07T03:12:07;26.50;;;16.73;;
10162;SDS011;5123;52.556;13.384;2023-12-07T03:14:41;22.40;;;16.50;;
10162;SDS011;5123;52.556;13.384;2023-12-07T03:17:14;22.57;;;16.70;;
10162;SDS011;5123;52.556;13.384;2023-12-07T03:19:47;19.90;;;14.93;;
10162;SDS011;5123;52.556;13.384;2023-12-07T03:22:22;23.97;;;16.13;;
10162;SDS011;5123;52.556;13.384;2023-12-07T03:24:56;24.57;;;16.50;;
10162;SDS011;5123;52.556;13.384;2023-12-07T03:27:29;26.30;;;16.43;;
10162;SDS011;5123;52.556;13.384;2023-12-07T03:30:04;25.27;;;16.60;;
10162;SDS011;5123;52.556;13.384;2023-12-07T03:32:37;22.73;;;15.97;;
10162;SDS011;5123;52.556;13.384;2023-12-07T03:35:12;25.83;;;16.03;;
10162;SDS011;5123;52.556;13.384;2023-12-07T03:37:45;24.33;;;16.90;;
10162;SDS011;5123;52.556;13.384;2023-12-07T03:40:18;27.70;;;17.50;;
10162;SDS011;5123;52.556;13.384;2023-12-07T03:42:51;27.77;;;18.03;;
10162;SDS011;5123;52.556;13.384;2023-12-07T03:45:29;27.93;;;18.10;;
10162;SDS011;5123;52.556;13.384;2023-12-07T03:48:07;27.97;;;19.23;;
10162;SDS011;5123;52.556;13.384;2023-12-07T03:50:40;28.83;;;17.80;;
10162;SDS011;5123;52.556;13.384;2023-12-07T03:53:13;29.33;;;18.87;;
10162;SDS011;5123;52.556;13.384;2023-12-07T03:55:46;30.47;;;18.63;;
10162;SDS011;5123;52.556;13.384;2023-12-07T03:58:19;31.00;;;19.13;;
10162;SDS011;5123;52.556;13.384;2023-12-07T04:00:53;35.30;;;20.13;;
10162;SDS011;5123;52.556;13.384;2023-12-07T04:03:26;33.30;;;20.27;;
10162;SDS011;5123;52.556;13.384;2023-12-07T04:05:59;33.07;;;20.07;;
10162;SDS011;5123;52.556;13.384;2023-12-07T04:08:34;30.03;;;19.27;;
10162;SDS011;5123;52.556;13.384;2023-12-07T04:11:06;31.13;;;19.57;;
10162;SDS011;5123;52.556;13.384;2023-12-07T04:13:39;32.53;;;19.43;;
10162;SDS011;5123;52.556;13.384;2023-12-07T04:16:14;30.27;;;18.83;;
10162;SDS011;5123;52.556;13.384;2023-12-07T04:18:48;32.33;;;19.93;;
10162;SDS011;5123;52.556;13.384;2023-12-07T04:21:21;31.90;;;18.77;;
10162;SDS011;5123;52.556;13.384;2023-12-07T04:23:53;34.33;;;19.23;;
10162;SDS011;5123;52.556;13.384;2023-12-07T04:26:26;32.27;;;19.23;;
10162;SDS011;5123;52.556;13.384;2023-12-07T04:29:03;30.13;;;19.10;;
10162;SDS011;5123;52.556;13.384;2023-12-07T04:31:37;30.97;;;17.30;;
10162;SDS011;5123;52.556;13.384;2023-12-07T04:34:10;33.53;;;18.77;;
10162;SDS011;5123;52.556;13.384;2023-12-07T04:36:42;30.40;;;18.63;;
10162;SDS011;5123;52.556;13.384;2023-12-07T04:39:18;30.87;;;19.50;;
10162;SDS011;5123;52.556;13.384;2023-12-07T04:41:51;33.03;;;18.83;;
10162;SDS011;5123;52.556;13.384;2023-12-07T04:44:24;31.43;;;18.17;;
10162;SDS011;5123;52.556;13.384;2023-12-07T04:46:59;31.33;;;19.17;;
10162;SDS011;5123;52.556;13.384;2023-12-07T04:49:32;31.13;;;17.67;;
10162;SDS011;5123;52.556;13.384;2023-12-07T04:52:05;30.67;;;17.97;;
10162;SDS011;5123;52.556;13.384;2023-12-07T04:54:38;35.77;;;20.03;;
10162;SDS011;5123;52.556;13.384;2023-12-07T04:57:10;29.40;;;16.97;;
10162;SDS011;5123;52.556;13.384;2023-12-07T04:59:43;33.90;;;18.40;;
10162;SDS011;5123;52.556;13.384;2023-12-07T05:02:20;32.27;;;18.27;;
10162;SDS011;5123;52.556;13.384;2023-12-07T05:04:56;31.70;;;18.10;;
10162;SDS011;5123;52.556;13.384;2023-12-07T05:07:28;33.83;;;18.90;;
10162;SDS011;5123;52.556;13.384;2023-12-07T05:10:02;29.33;;;17.13;;
10162;SDS011;5123;52.556;13.384;2023-12-07T05:12:35;34.80;;;18.90;;
10162;SDS011;5123;52.556;13.384;2023-12-07T05:15:10;34.47;;;17.73;;
10162;SDS011;5123;52.556;13.384;2023-12-07T05:17:44;34.13;;;17.80;;
10162;SDS011;5123;52.556;13.384;2023-12-07T05:20:17;33.23;;;18.43;;
10162;SDS011;5123;52.556;13.384;2023-12-07T05:22:54;34.43;;;18.87;;
10162;SDS011;5123;52.556;13.384;2023-12-07T05:25:26;33.50;;;18.53;;
10162;SDS011;5123;52.556;13.384;2023-12-07T05:28:00;33.43;;;18.73;;
10162;SDS011;5123;52.556;13.384;2023-12-07T05:30:33;31.30;;;19.07;;
10162;SDS011;5123;52.556;13.384;2023-12-07T05:33:07;31.17;;;18.43;;
10162;SDS011;5123;52.556;13.384;2023-12-07T05:35:40;32.73;;;18.40;;
10162;SDS011;5123;52.556;13.384;2023-12-07T05:38:13;31.10;;;18.10;;
10162;SDS011;5123;52.556;13.384;2023-12-07T05:40:46;31.90;;;17.17;;
10162;SDS011;5123;52.556;13.384;2023-12-07T05:43:19;32.20;;;18.97;;
10162;SDS011;5123;52.556;13.384;2023-12-07T05:45:52;32.00;;;16.67;;
10162;SDS011;5123;52.556;13.384;2023-12-07T05:48:26;31.77;;;18.77;;
10162;SDS011;5123;52.556;13.384;2023-12-07T05:50:59;31.30;;;17.50;;
10162;SDS011;5123;52.556;13.384;2023-12-07T05:53:32;29.77;;;17.73;;
10162;SDS011;5123;52.556;13.384;2023-12-07T05:56:05;30.00;;;17.53;;
10162;SDS011;5123;52.556;13.384;2023-12-07T05:58:38;27.63;;;17.37;;
10162;SDS011;5123;52.556;13.384;2023-12-07T06:01:11;34.23;;;17.83;;
10162;SDS011;5123;52.556;13.384;2023-12-07T06:03:48;33.20;;;18.67;;
10162;SDS011;5123;52.556;13.384;2023-12-07T06:06:23;30.87;;;17.37;;
10162;SDS011;5123;52.556;13.384;2023-12-07T06:08:55;27.83;;;17.40;;
10162;SDS011;5123;52.556;13.384;2023-12-07T06:11:28;29.47;;;18.07;;
10162;SDS011;5123;52.556;13.384;2023-12-07T06:14:05;30.77;;;17.70;;
10162;SDS011;5123;52.556;13.384;2023-12-07T06:16:40;29.97;;;18.63;;
10162;SDS011;5123;52.556;13.384;2023-12-07T06:19:15;30.50;;;18.20;;
10162;SDS011;5123;52.556;13.384;2023-12-07T06:21:48;33.27;;;17.97;;
10162;SDS011;5123;52.556;13.384;2023-12-07T06:24:20;31.50;;;18.07;;
10162;SDS011;5123;52.556;13.384;2023-12-07T06:26:55;27.10;;;15.53;;
10162;SDS011;5123;52.556;13.384;2023-12-07T06:29:28;29.37;;;16.90;;
10162;SDS011;5123;52.556;13.384;2023-12-07T06:32:01;31.00;;;17.03;;
10162;SDS011;5123;52.556;13.384;2023-12-07T06:34:40;29.60;;;15.70;;
10162;SDS011;5123;52.556;13.384;2023-12-07T06:37:14;30.73;;;17.33;;
10162;SDS011;5123;52.556;13.384;2023-12-07T06:39:47;28.80;;;16.57;;
10162;SDS011;5123;52.556;13.384;2023-12-07T06:42:20;27.40;;;16.10;;
10162;SDS011;5123;52.556;13.384;2023-12-07T06:44:54;32.00;;;17.77;;
10162;SDS011;5123;52.556;13.384;2023-12-07T06:47:26;28.87;;;18.47;;
10162;SDS011;5123;52.556;13.384;2023-12-07T06:50:01;37.90;;;19.63;;
10162;SDS011;5123;52.556;13.384;2023-12-07T06:52:39;31.90;;;19.10;;
10162;SDS011;5123;52.556;13.384;2023-12-07T06:55:12;34.43;;;18.53;;
10162;SDS011;5123;52.556;13.384;2023-12-07T06:57:46;32.43;;;18.83;;
10162;SDS011;5123;52.556;13.384;2023-12-07T07:00:18;35.63;;;18.33;;
10162;SDS011;5123;52.556;13.384;2023-12-07T07:02:54;30.80;;;17.37;;
10162;SDS011;5123;52.556;13.384;2023-12-07T07:05:29;30.80;;;17.97;;
10162;SDS011;5123;52.556;13.384;2023-12-07T07:08:01;33.33;;;18.03;;
10162;SDS011;5123;52.556;13.384;2023-12-07T07:10:35;31.20;;;18.37;;
10162;SDS011;5123;52.556;13.384;2023-12-07T07:13:08;32.90;;;19.20;;
10162;SDS011;5123;52.556;13.384;2023-12-07T07:15:41;32.37;;;18.17;;
10162;SDS011;5123;52.556;13.384;2023-12-07T07:18:15;32.33;;;19.93;;
10162;SDS011;5123;52.556;13.384;2023-12-07T07:20:52;32.77;;;19.30;;
10162;SDS011;5123;52.556;13.384;2023-12-07T07:23:25;36.53;;;19.87;;
10162;SDS011;5123;52.556;13.384;2023-12-07T07:25:58;37.73;;;20.43;;
10162;SDS011;5123;52.556;13.384;2023-12-07T07:28:30;32.87;;;17.77;;
10162;SDS011;5123;52.556;13.384;2023-12-07T07:31:04;33.23;;;18.37;;
10162;SDS011;5123;52.556;13.384;2023-12-07T07:33:39;32.50;;;18.30;;
10162;SDS011;5123;52.556;13.384;2023-12-07T07:36:14;33.07;;;18.37;;
10162;SDS011;5123;52.556;13.384;2023-12-07T07:38:47;33.00;;;19.37;;
10162;SDS011;5123;52.556;13.384;2023-12-07T07:41:21;28.43;;;17.50;;
10162;SDS011;5123;52.556;13.384;2023-12-07T07:43:54;30.87;;;17.67;;
10162;SDS011;5123;52.556;13.384;2023-12-07T07:46:31;34.00;;;18.73;;
10162;SDS011;5123;52.556;13.384;2023-12-07T07:49:06;30.60;;;18.17;;
10162;SDS011;5123;52.556;13.384;2023-12-07T07:51:43;30.50;;;17.37;;
10162;SDS011;5123;52.556;13.384;2023-12-07T07:54:16;33.80;;;18.27;;
10162;SDS011;5123;52.556;13.384;2023-12-07T07:56:49;31.67;;;17.60;;
10162;SDS011;5123;52.556;13.384;2023-12-07T07:59:22;32.00;;;17.83;;
10162;SDS011;5123;52.556;13.384;2023-12-07T08:01:55;29.67;;;17.30;;
10162;SDS011;5123;52.556;13.384;2023-12-07T08:04:28;35.20;;;18.90;;
10162;SDS011;5123;52.556;13.384;2023-12-07T08:07:02;30.70;;;18.33;;
10162;SDS011;5123;52.556;13.384;2023-12-07T08:09:35;30.93;;;17.70;;
10162;SDS011;5123;52.556;13.384;2023-12-07T08:12:08;31.83;;;18.83;;
10162;SDS011;5123;52.556;13.384;2023-12-07T08:14:43;29.87;;;18.20;;
10162;SDS011;5123;52.556;13.384;2023-12-07T08:17:17;35.67;;;19.03;;
10162;SDS011;5123;52.556;13.384;2023-12-07T08:19:51;27.40;;;16.77;;
10162;SDS011;5123;52.556;13.384;2023-12-07T08:22:25;30.23;;;17.43;;
10162;SDS011;5123;52.556;13.384;2023-12-07T08:24:58;32.03;;;18.60;;
10162;SDS011;5123;52.556;13.384;2023-12-07T08:27:41;33.10;;;17.53;;
10162;SDS011;5123;52.556;13.384;2023-12-07T08:30:16;30.50;;;18.27;;
10162;SDS011;5123;52.556;13.384;2023-12-07T08:32:50;31.07;;;18.70;;
10162;SDS011;5123;52.556;13.384;2023-12-07T08:35:23;30.17;;;18.93;;
10162;SDS011;5123;52.556;13.384;2023-12-07T08:37:57;30.83;;;17.13;;
10162;SDS011;5123;52.556;13.384;2023-12-07T08:40:30;24.57;;;15.97;;
10162;SDS011;5123;52.556;13.384;2023-12-07T08:43:05;26.53;;;16.03;;
10162;SDS011;5123;52.556;13.384;2023-12-07T08:45:38;27.73;;;16.73;;
10162;SDS011;5123;52.556;13.384;2023-12-07T08:48:14;27.07;;;16.80;;
10162;SDS011;5123;52.556;13.384;2023-12-07T08:50:49;26.60;;;15.70;;
10162;SDS011;5123;52.556;13.384;2023-12-07T08:53:23;27.43;;;16.90;;
10162;SDS011;5123;52.556;13.384;2023-12-07T08:55:57;28.47;;;16.70;;
10162;SDS011;5123;52.556;13.384;2023-12-07T08:58:30;29.00;;;16.63;;
10162;SDS011;5123;52.556;13.384;2023-12-07T09:01:03;30.67;;;17.17;;
10162;SDS011;5123;52.556;13.384;2023-12-07T09:03:40;32.43;;;18.87;;
10162;SDS011;5123;52.556;13.384;2023-12-07T09:06:13;31.50;;;16.83;;
10162;SDS011;5123;52.556;13.384;2023-12-07T09:08:47;28.77;;;16.03;;
10162;SDS011;5123;52.556;13.384;2023-12-07T09:11:20;29.20;;;18.30;;
10162;SDS011;5123;52.556;13.384;2023-12-07T09:13:53;28.60;;;17.53;;
10162;SDS011;5123;52.556;13.384;2023-12-07T09:16:26;25.33;;;15.47;;
10162;SDS011;5123;52.556;13.384;2023-12-07T09:19:01;27.00;;;16.37;;
10162;SDS011;5123;52.556;13.384;2023-12-07T09:21:34;29.60;;;17.87;;
10162;SDS011;5123;52.556;13.384;2023-12-07T09:24:08;31.23;;;17.03;;
10162;SDS011;5123;52.556;13.384;2023-12-07T09:26:43;29.03;;;17.70;;
10162;SDS011;5123;52.556;13.384;2023-12-07T09:29:16;26.40;;;16.10;;
10162;SDS011;5123;52.556;13.384;2023-12-07T09:31:49;30.77;;;17.43;;
10162;SDS011;5123;52.556;13.384;2023-12-07T09:34:24;29.97;;;18.03;;
10162;SDS011;5123;52.556;13.384;2023-12-07T09:37:06;30.43;;;18.07;;
10162;SDS011;5123;52.556;13.384;2023-12-07T09:39:43;27.57;;;15.77;;
10162;SDS011;5123;52.556;13.384;2023-12-07T09:42:17;25.97;;;16.13;;
10162;SDS011;5123;52.556;13.384;2023-12-07T09:44:54;28.47;;;17.23;;
10162;SDS011;5123;52.556;13.384;2023-12-07T09:47:27;25.53;;;16.77;;
10162;SDS011;5123;52.556;13.384;2023-12-07T09:50:08;25.87;;;16.23;;
10162;SDS011;5123;52.556;13.384;2023-12-07T09:52:41;28.13;;;16.13;;
10162;SDS011;5123;52.556;13.384;2023-12-07T09:55:28;28.23;;;15.77;;
10162;SDS011;5123;52.556;13.384;2023-12-07T09:58:03;27.13;;;17.40;;
10162;SDS011;5123;52.556;13.384;2023-12-07T10:00:37;30.10;;;17.43;;
10162;SDS011;5123;52.556;13.384;2023-12-07T10:03:19;27.80;;;17.70;;
10162;SDS011;5123;52.556;13.384;2023-12-07T10:05:54;31.87;;;17.33;;
10162;SDS011;5123;52.556;13.384;2023-12-07T10:08:28;32.07;;;17.40;;
10162;SDS011;5123;52.556;13.384;2023-12-07T10:11:03;29.47;;;17.33;;
10162;SDS011;5123;52.556;13.384;2023-12-07T10:13:36;31.43;;;18.20;;
10162;SDS011;5123;52.556;13.384;2023-12-07T10:16:11;29.43;;;16.83;;
10162;SDS011;5123;52.556;13.384;2023-12-07T10:18:44;24.23;;;15.57;;
10162;SDS011;5123;52.556;13.384;2023-12-07T10:21:21;27.33;;;15.97;;
10162;SDS011;5123;52.556;13.384;2023-12-07T10:24:03;25.30;;;16.23;;
10162;SDS011;5123;52.556;13.384;2023-12-07T10:26:40;27.73;;;16.13;;
10162;SDS011;5123;52.556;13.384;2023-12-07T10:29:16;29.17;;;16.27;;
10162;SDS011;5123;52.556;13.384;2023-12-07T10:32:03;29.50;;;16.83;;
10162;SDS011;5123;52.556;13.384;2023-12-07T10:34:36;29.77;;;16.60;;
10162;SDS011;5123;52.556;13.384;2023-12-07T10:37:09;30.60;;;17.57;;
10162;SDS011;5123;52.556;13.384;2023-12-07T10:39:42;28.23;;;17.73;;
10162;SDS011;5123;52.556;13.384;2023-12-07T10:42:16;29.93;;;18.20;;
10162;SDS011;5123;52.556;13.384;2023-12-07T10:44:52;33.10;;;18.87;;
10162;SDS011;5123;52.556;13.384;2023-12-07T10:47:28;30.73;;;16.77;;
10162;SDS011;5123;52.556;13.384;2023-12-07T10:50:01;31.17;;;17.77;;
10162;SDS011;5123;52.556;13.384;2023-12-07T10:52:34;29.73;;;16.87;;
10162;SDS011;5123;52.556;13.384;2023-12-07T10:55:10;34.20;;;19.47;;
10162;SDS011;5123;52.556;13.384;2023-12-07T10:57:46;30.00;;;18.50;;
10162;SDS011;5123;52.556;13.384;2023-12-07T11:00:19;29.93;;;17.57;;
10162;SDS011;5123;52.556;13.384;2023-12-07T11:03:15;33.10;;;18.47;;
10162;SDS011;5123;52.556;13.384;2023-12-07T11:05:50;30.90;;;18.57;;
10162;SDS011;5123;52.556;13.384;2023-12-07T11:08:25;32.43;;;18.37;;
10162;SDS011;5123;52.556;13.384;2023-12-07T11:11:01;32.33;;;19.73;;
10162;SDS011;5123;52.556;13.384;2023-12-07T11:13:38;33.40;;;18.07;;
10162;SDS011;5123;52.556;13.384;2023-12-07T11:16:12;31.60;;;18.23;;
10162;SDS011;5123;52.556;13.384;2023-12-07T11:18:46;31.00;;;18.87;;
10162;SDS011;5123;52.556;13.384;2023-12-07T11:21:19;39.03;;;22.47;;
10162;SDS011;5123;52.556;13.384;2023-12-07T11:23:53;29.27;;;16.57;;
10162;SDS011;5123;52.556;13.384;2023-12-07T11:26:26;29.60;;;17.20;;
10162;SDS011;5123;52.556;13.384;2023-12-07T11:29:07;31.37;;;18.03;;
10162;SDS011;5123;52.556;13.384;2023-12-07T11:31:44;30.53;;;17.90;;
10162;SDS011;5123;52.556;13.384;2023-12-07T11:34:29;31.27;;;17.83;;
10162;SDS011;5123;52.556;13.384;2023-12-07T11:37:06;34.87;;;20.33;;
10162;SDS011;5123;52.556;13.384;2023-12-07T11:39:39;30.20;;;17.70;;
10162;SDS011;5123;52.556;13.384;2023-12-07T11:42:15;30.60;;;17.37;;
10162;SDS011;5123;52.556;13.384;2023-12-07T11:44:49;27.97;;;17.27;;
10162;SDS011;5123;52.556;13.384;2023-12-07T11:47:22;32.57;;;17.73;;
10162;SDS011;5123;52.556;13.384;2023-12-07T11:49:56;30.20;;;17.90;;
10162;SDS011;5123;52.556;13.384;2023-12-07T11:52:35;30.73;;;17.83;;
10162;SDS011;5123;52.556;13.384;2023-12-07T11:55:08;32.80;;;19.00;;
10162;SDS011;5123;52.556;13.384;2023-12-07T11:57:44;30.67;;;18.23;;
10162;SDS011;5123;52.556;13.384;2023-12-07T12:00:18;30.27;;;18.37;;
10162;SDS011;5123;52.556;13.384;2023-12-07T12:02:51;35.20;;;19.23;;
10162;SDS011;5123;52.556;13.384;2023-12-07T12:05:23;25.60;;;16.70;;
10162;SDS011;5123;52.556;13.384;2023-12-07T12:07:57;35.60;;;19.77;;
10162;SDS011;5123;52.556;13.384;2023-12-07T12:10:29;30.27;;;19.47;;
10162;SDS011;5123;52.556;13.384;2023-12-07T12:13:03;31.17;;;17.93;;
10162;SDS011;5123;52.556;13.384;2023-12-07T12:15:37;34.10;;;19.17;;
10162;SDS011;5123;52.556;13.384;2023-12-07T12:18:10;29.17;;;18.07;;
10162;SDS011;5123;52.556;13.384;2023-12-07T12:20:45;36.20;;;21.27;;
10162;SDS011;5123;52.556;13.384;2023-12-07T12:23:17;35.67;;;21.20;;
10162;SDS011;5123;52.556;13.384;2023-12-07T12:25:50;33.53;;;19.50;;
10162;SDS011;5123;52.556;13.384;2023-12-07T12:28:26;36.03;;;18.97;;
10162;SDS011;5123;52.556;13.384;2023-12-07T12:31:00;33.20;;;19.63;;
10162;SDS011;5123;52.556;13.384;2023-12-07T12:33:36;36.20;;;20.30;;
10162;SDS011;5123;52.556;13.384;2023-12-07T12:36:09;32.70;;;20.17;;
10162;SDS011;5123;52.556;13.384;2023-12-07T12:38:46;31.57;;;19.37;;
10162;SDS011;5123;52.556;13.384;2023-12-07T12:41:19;32.37;;;19.87;;
10162;SDS011;5123;52.556;13.384;2023-12-07T12:43:52;33.70;;;20.77;;
10162;SDS011;5123;52.556;13.384;2023-12-07T12:46:26;35.67;;;20.40;;
10162;SDS011;5123;52.556;13.384;2023-12-07T12:49:02;39.87;;;20.70;;
10162;SDS011;5123;52.556;13.384;2023-12-07T12:51:36;34.13;;;20.40;;
10162;SDS011;5123;52.556;13.384;2023-12-07T12:54:10;32.30;;;20.00;;
10162;SDS011;5123;52.556;13.384;2023-12-07T12:56:53;40.37;;;22.87;;
10162;SDS011;5123;52.556;13.384;2023-12-07T12:59:26;33.07;;;20.97;;
10162;SDS011;5123;52.556;13.384;2023-12-07T13:02:03;36.50;;;22.40;;
10162;SDS011;5123;52.556;13.384;2023-12-07T13:04:36;37.73;;;21.07;;
10162;SDS011;5123;52.556;13.384;2023-12-07T13:07:13;38.27;;;22.03;;
10162;SDS011;5123;52.556;13.384;2023-12-07T13:09:46;39.57;;;23.70;;
10162;SDS011;5123;52.556;13.384;2023-12-07T13:12:19;42.70;;;23.30;;
10162;SDS011;5123;52.556;13.384;2023-12-07T13:14:53;38.60;;;23.53;;
10162;SDS011;5123;52.556;13.384;2023-12-07T13:17:31;39.97;;;23.93;;
10162;SDS011;5123;52.556;13.384;2023-12-07T13:20:04;40.00;;;23.57;;
10162;SDS011;5123;52.556;13.384;2023-12-07T13:22:38;41.93;;;23.53;;
10162;SDS011;5123;52.556;13.384;2023-12-07T13:25:11;53.13;;;31.87;;
10162;SDS011;5123;52.556;13.384;2023-12-07T13:27:46;39.17;;;24.37;;
10162;SDS011;5123;52.556;13.384;2023-12-07T13:30:19;37.73;;;23.03;;
10162;SDS011;5123;52.556;13.384;2023-12-07T13:32:53;43.13;;;24.50;;
10162;SDS011;5123;52.556;13.384;2023-12-07T13:35:26;47.83;;;27.30;;
10162;SDS011;5123;52.556;13.384;2023-12-07T13:37:59;42.77;;;23.93;;
10162;SDS011;5123;52.556;13.384;2023-12-07T13:40:35;43.40;;;25.10;;
10162;SDS011;5123;52.556;13.384;2023-12-07T13:43:08;47.83;;;26.93;;
10162;SDS011;5123;52.556;13.384;2023-12-07T13:45:44;49.07;;;26.80;;
10162;SDS011;5123;52.556;13.384;2023-12-07T13:48:18;48.63;;;26.43;;
10162;SDS011;5123;52.556;13.384;2023-12-07T13:50:51;48.63;;;26.03;;
10162;SDS011;5123;52.556;13.384;2023-12-07T13:53:24;49.03;;;26.17;;
10162;SDS011;5123;52.556;13.384;2023-12-07T13:55:59;51.43;;;28.47;;
10162;SDS011;5123;52.556;13.384;2023-12-07T13:58:32;47.83;;;27.27;;
10162;SDS011;5123;52.556;13.384;2023-12-07T14:01:06;49.70;;;26.77;;
10162;SDS011;5123;52.556;13.384;2023-12-07T14:03:40;53.63;;;29.43;;
10162;SDS011;5123;52.556;13.384;2023-12-07T14:06:21;47.03;;;27.73;;
10162;SDS011;5123;52.556;13.384;2023-12-07T14:09:00;47.10;;;26.93;;
10162;SDS011;5123;52.556;13.384;2023-12-07T14:11:33;50.77;;;27.83;;
10162;SDS011;5123;52.556;13.384;2023-12-07T14:14:06;53.07;;;27.57;;
10162;SDS011;5123;52.556;13.384;2023-12-07T14:16:39;53.33;;;28.73;;
10162;SDS011;5123;52.556;13.384;2023-12-07T14:19:33;69.87;;;38.40;;
10162;SDS011;5123;52.556;13.384;2023-12-07T14:22:06;51.23;;;28.83;;
10162;SDS011;5123;52.556;13.384;2023-12-07T14:24:40;55.30;;;29.87;;
10162;SDS011;5123;52.556;13.384;2023-12-07T14:27:13;55.67;;;29.77;;
10162;SDS011;5123;52.556;13.384;2023-12-07T14:29:47;58.73;;;29.83;;
10162;SDS011;5123;52.556;13.384;2023-12-07T14:32:22;50.67;;;26.83;;
10162;SDS011;5123;52.556;13.384;2023-12-07T14:34:57;49.97;;;26.30;;
10162;SDS011;5123;52.556;13.384;2023-12-07T14:37:30;56.43;;;29.90;;
10162;SDS011;5123;52.556;13.384;2023-12-07T14:40:03;54.60;;;28.57;;
10162;SDS011;5123;52.556;13.384;2023-12-07T14:42:36;46.27;;;24.17;;
10162;SDS011;5123;52.556;13.384;2023-12-07T14:45:09;49.43;;;26.87;;
10162;SDS011;5123;52.556;13.384;2023-12-07T14:47:43;50.93;;;26.47;;
10162;SDS011;5123;52.556;13.384;2023-12-07T14:50:25;52.70;;;27.23;;
10162;SDS011;5123;52.556;13.384;2023-12-07T14:52:58;51.93;;;27.57;;
10162;SDS011;5123;52.556;13.384;2023-12-07T14:55:34;50.13;;;26.20;;
10162;SDS011;5123;52.556;13.384;2023-12-07T14:58:06;61.63;;;30.90;;
10162;SDS011;5123;52.556;13.384;2023-12-07T15:00:41;56.80;;;29.17;;
10162;SDS011;5123;52.556;13.384;2023-12-07T15:03:16;75.97;;;42.40;;
10162;SDS011;5123;52.556;13.384;2023-12-07T15:05:51;57.53;;;29.00;;